createdAt,value
2019-06-26T00:02:27.364Z,23.40
2019-06-26T00:04:55.988Z,23.40
2019-06-26T00:07:23.626Z,23.40
2019-06-26T00:09:51.273Z,23.40
2019-06-26T00:12:18.924Z,23.40
2019-06-26T00:14:46.559Z,23.40
2019-06-26T00:17:14.203Z,23.40
2019-06-26T00:19:41.877Z,23.40
2019-06-26T00:22:09.579Z,23.40
2019-06-26T00:24:37.223Z,23.30
2019-06-26T00:27:04.892Z,23.20
2019-06-26T00:29:32.602Z,23.10
2019-06-26T00:32:00.250Z,23.10
2019-06-26T00:34:27.903Z,23.20
2019-06-26T00:36:55.581Z,23.30
2019-06-26T00:39:23.367Z,23.20
2019-06-26T00:41:51.027Z,23.00
2019-06-26T00:44:18.674Z,22.80
2019-06-26T00:46:46.318Z,22.70
2019-06-26T00:49:13.977Z,22.60
2019-06-26T00:51:41.641Z,22.60
2019-06-26T00:54:09.335Z,22.50
2019-06-26T00:56:37.015Z,22.60
2019-06-26T00:59:04.688Z,22.50
2019-06-26T01:01:32.377Z,22.50
2019-06-26T01:04:00.036Z,22.60
2019-06-26T01:06:27.898Z,22.50
2019-06-26T01:08:55.548Z,22.50
2019-06-26T01:11:23.275Z,22.50
2019-06-26T01:13:58.203Z,22.60
2019-06-26T01:16:20.993Z,22.70
2019-06-26T01:18:48.660Z,22.60
2019-06-26T01:21:16.370Z,22.50
2019-06-26T01:23:44.010Z,22.50
2019-06-26T01:26:11.671Z,22.30
2019-06-26T01:28:39.310Z,22.20
2019-06-26T01:31:07.000Z,22.10
2019-06-26T01:33:34.714Z,22.00
2019-06-26T01:36:02.364Z,22.00
2019-06-26T01:38:30.147Z,22.00
2019-06-26T01:40:57.819Z,22.10
2019-06-26T01:43:25.463Z,22.00
2019-06-26T01:45:53.098Z,22.00
2019-06-26T01:48:20.762Z,22.00
2019-06-26T01:50:48.423Z,22.00
2019-06-26T01:53:16.138Z,22.00
2019-06-26T01:55:43.881Z,22.00
2019-06-26T01:58:11.990Z,22.10
2019-06-26T02:00:39.661Z,21.90
2019-06-26T02:03:07.412Z,21.70
2019-06-26T02:05:35.100Z,21.70
2019-06-26T02:08:02.811Z,21.60
2019-06-26T02:10:30.474Z,21.30
2019-06-26T02:12:58.112Z,21.40
2019-06-26T02:15:25.745Z,21.40
2019-06-26T02:17:53.431Z,21.30
2019-06-26T02:20:21.066Z,21.40
2019-06-26T02:22:49.628Z,21.40
2019-06-26T02:25:17.532Z,21.40
2019-06-26T02:27:45.347Z,21.50
2019-06-26T02:30:13.719Z,21.50
2019-06-26T02:32:41.379Z,21.50
2019-06-26T02:35:10.491Z,21.50
2019-06-26T02:37:38.477Z,21.50
2019-06-26T02:40:06.639Z,21.50
2019-06-26T02:42:34.592Z,21.50
2019-06-26T02:45:02.799Z,21.30
2019-06-26T02:47:30.551Z,21.10
2019-06-26T02:49:58.190Z,21.00
2019-06-26T02:52:25.831Z,20.90
2019-06-26T02:54:53.492Z,20.90
2019-06-26T02:57:21.134Z,20.80
2019-06-26T02:59:48.843Z,20.90
2019-06-26T03:02:16.802Z,20.90
2019-06-26T03:04:44.439Z,20.90
2019-06-26T03:07:12.078Z,20.80
2019-06-26T03:09:39.773Z,21.00
2019-06-26T03:12:07.502Z,21.00
2019-06-26T03:14:35.190Z,21.00
2019-06-26T03:17:02.878Z,21.00
2019-06-26T03:19:30.517Z,21.00
2019-06-26T03:21:58.227Z,20.80
2019-06-26T03:24:25.948Z,20.80
2019-06-26T03:26:53.590Z,20.70
2019-06-26T03:29:21.226Z,20.50
2019-06-26T03:31:48.887Z,20.50
2019-06-26T03:34:16.599Z,20.50
2019-06-26T03:36:44.247Z,20.50
2019-06-26T03:39:11.982Z,20.50
2019-06-26T03:41:39.621Z,20.60
2019-06-26T03:44:07.267Z,20.70
2019-06-26T03:46:34.996Z,20.70
2019-06-26T03:49:02.646Z,20.70
2019-06-26T03:51:30.360Z,20.80
2019-06-26T03:53:58.098Z,20.90
2019-06-26T03:56:25.738Z,20.80
2019-06-26T03:58:53.386Z,20.90
2019-06-26T04:01:21.050Z,20.80
2019-06-26T04:03:48.695Z,20.70
2019-06-26T04:06:16.326Z,20.70
2019-06-26T04:08:44.000Z,20.80
2019-06-26T04:11:11.635Z,20.90
2019-06-26T04:13:39.282Z,20.90
2019-06-26T04:16:06.948Z,20.90
2019-06-26T04:18:34.657Z,20.80
2019-06-26T04:21:02.372Z,20.70
2019-06-26T04:23:30.046Z,20.50
2019-06-26T04:25:57.867Z,20.40
2019-06-26T04:28:25.792Z,20.40
2019-06-26T04:30:53.507Z,20.40
2019-06-26T04:33:21.142Z,20.40
2019-06-26T04:35:48.778Z,20.50
2019-06-26T04:38:16.467Z,20.50
2019-06-26T04:40:44.176Z,20.50
2019-06-26T04:43:11.886Z,20.60
2019-06-26T04:45:39.546Z,20.60
2019-06-26T04:48:07.605Z,20.70
2019-06-26T04:50:35.301Z,20.80
2019-06-26T04:53:03.026Z,20.90
2019-06-26T04:55:30.730Z,20.90
2019-06-26T04:57:58.370Z,21.00
2019-06-26T05:00:26.057Z,21.00
2019-06-26T05:02:53.702Z,21.00
2019-06-26T05:05:21.337Z,20.90
2019-06-26T05:07:48.995Z,20.90
2019-06-26T05:10:16.710Z,20.80
2019-06-26T05:12:44.348Z,20.80
2019-06-26T05:15:12.344Z,20.80
2019-06-26T05:17:39.983Z,20.80
2019-06-26T05:20:08.265Z,20.90
2019-06-26T05:22:36.173Z,21.00
2019-06-26T05:25:05.954Z,21.10
2019-06-26T05:27:33.590Z,21.30
2019-06-26T05:30:01.319Z,21.30
2019-06-26T05:32:28.959Z,21.50
2019-06-26T05:34:56.609Z,21.50
2019-06-26T05:37:24.346Z,21.60
2019-06-26T05:39:54.697Z,21.70
2019-06-26T05:42:21.339Z,21.80
2019-06-26T05:44:49.007Z,21.80
2019-06-26T05:47:16.639Z,21.90
2019-06-26T05:49:44.300Z,21.90
2019-06-26T05:52:12.014Z,22.00
2019-06-26T05:54:39.661Z,22.00
2019-06-26T05:57:07.374Z,22.10
2019-06-26T05:59:35.113Z,22.10
2019-06-26T06:02:02.758Z,22.00
2019-06-26T06:04:30.403Z,22.00
2019-06-26T06:06:58.138Z,22.10
2019-06-26T06:09:25.786Z,22.10
2019-06-26T06:11:53.420Z,22.10
2019-06-26T06:14:21.079Z,22.10
2019-06-26T06:16:48.714Z,22.10
2019-06-26T06:19:16.359Z,22.20
2019-06-26T06:21:44.041Z,22.20
2019-06-26T06:24:11.684Z,22.30
2019-06-26T06:26:39.339Z,22.40
2019-06-26T06:29:07.062Z,22.40
2019-06-26T06:31:34.781Z,22.40
2019-06-26T06:34:02.501Z,22.50
2019-06-26T06:36:30.167Z,22.50
2019-06-26T06:38:57.886Z,22.60
2019-06-26T06:41:25.594Z,22.70
2019-06-26T06:43:53.353Z,22.70
2019-06-26T06:46:21.126Z,22.70
2019-06-26T06:48:48.766Z,22.80
2019-06-26T06:51:16.514Z,22.80
2019-06-26T06:53:44.251Z,22.90
2019-06-26T06:56:11.931Z,22.90
2019-06-26T06:58:39.603Z,23.00
2019-06-26T07:01:07.242Z,23.10
2019-06-26T07:03:34.890Z,23.20
2019-06-26T07:06:02.546Z,23.30
2019-06-26T07:08:30.184Z,23.30
2019-06-26T07:10:58.394Z,23.40
2019-06-26T07:13:26.058Z,23.40
2019-06-26T07:15:53.686Z,23.50
2019-06-26T07:18:21.341Z,23.50
2019-06-26T07:20:49.097Z,23.70
2019-06-26T07:23:16.891Z,23.70
2019-06-26T07:25:44.530Z,23.80
2019-06-26T07:28:12.300Z,23.90
2019-06-26T07:30:40.081Z,23.90
2019-06-26T07:33:07.847Z,24.10
2019-06-26T07:35:35.570Z,24.10
2019-06-26T07:38:03.206Z,24.30
2019-06-26T07:40:30.850Z,24.30
2019-06-26T07:42:58.502Z,24.40
2019-06-26T07:45:26.151Z,24.40
2019-06-26T07:47:54.795Z,24.50
2019-06-26T07:50:22.530Z,24.50
2019-06-26T07:52:50.175Z,24.70
2019-06-26T07:55:17.818Z,24.70
2019-06-26T07:57:45.495Z,24.80
2019-06-26T08:00:14.404Z,24.90
2019-06-26T08:02:42.090Z,24.90
2019-06-26T08:05:10.946Z,24.90
2019-06-26T08:07:38.586Z,25.00
2019-06-26T08:10:09.497Z,25.10
2019-06-26T08:12:37.252Z,25.20
2019-06-26T08:15:06.771Z,25.30
2019-06-26T08:17:34.426Z,25.30
2019-06-26T08:20:02.238Z,25.50
2019-06-26T08:22:29.891Z,25.50
2019-06-26T08:24:57.534Z,25.50
2019-06-26T08:27:27.090Z,25.70
2019-06-26T08:29:54.727Z,25.70
2019-06-26T08:32:25.826Z,25.80
2019-06-26T08:34:51.861Z,25.90
2019-06-26T08:37:19.671Z,26.00
2019-06-26T08:39:47.602Z,26.10
2019-06-26T08:42:15.748Z,26.10
2019-06-26T08:44:43.390Z,26.10
2019-06-26T08:47:11.094Z,26.20
2019-06-26T08:49:40.343Z,26.40
2019-06-26T08:52:08.214Z,26.40
2019-06-26T08:54:35.855Z,26.50
2019-06-26T08:57:03.541Z,26.60
2019-06-26T08:59:31.326Z,26.60
2019-06-26T09:01:58.965Z,26.70
2019-06-26T09:04:26.736Z,26.80
2019-06-26T09:06:54.497Z,26.90
2019-06-26T09:09:22.161Z,26.90
2019-06-26T09:11:49.824Z,27.10
2019-06-26T09:14:17.977Z,27.20
2019-06-26T09:16:45.694Z,27.20
2019-06-26T09:19:13.430Z,27.30
2019-06-26T09:21:41.066Z,27.40
2019-06-26T09:24:08.698Z,27.40
2019-06-26T09:26:36.370Z,27.50
2019-06-26T09:29:04.176Z,27.50
2019-06-26T09:31:31.876Z,27.50
2019-06-26T09:33:59.543Z,27.60
2019-06-26T09:36:27.186Z,27.60
2019-06-26T09:38:57.856Z,27.70
2019-06-26T09:41:24.198Z,27.90
2019-06-26T09:43:51.907Z,27.90
2019-06-26T09:46:19.549Z,27.80
2019-06-26T09:48:52.926Z,28.00
2019-06-26T09:51:16.561Z,28.10
2019-06-26T09:53:47.498Z,28.10
2019-06-26T09:56:13.670Z,28.20
2019-06-26T09:58:41.336Z,28.30
2019-06-26T10:01:09.043Z,28.40
2019-06-26T10:03:36.715Z,28.30
2019-06-26T10:06:04.495Z,28.40
2019-06-26T10:08:32.134Z,28.60
2019-06-26T10:10:59.862Z,28.60
2019-06-26T10:13:27.498Z,28.70
2019-06-26T10:15:55.137Z,28.60
2019-06-26T10:18:22.834Z,28.70
2019-06-26T10:20:50.481Z,28.70
2019-06-26T10:23:18.183Z,28.80
2019-06-26T10:25:45.874Z,28.90
2019-06-26T10:28:13.521Z,29.10
2019-06-26T10:30:41.227Z,29.10
2019-06-26T10:33:08.884Z,29.10
2019-06-26T10:35:36.519Z,29.20
2019-06-26T10:38:04.636Z,29.20
2019-06-26T10:40:32.383Z,29.20
2019-06-26T10:43:00.307Z,29.20
2019-06-26T10:45:28.086Z,29.10
2019-06-26T10:47:56.067Z,29.10
2019-06-26T10:50:23.720Z,29.00
2019-06-26T10:52:51.359Z,29.20
2019-06-26T10:55:20.556Z,29.40
2019-06-26T10:57:48.185Z,29.50
2019-06-26T11:00:17.633Z,29.70
2019-06-26T11:02:45.316Z,29.70
2019-06-26T11:05:13.668Z,29.90
2019-06-26T11:07:41.374Z,29.90
2019-06-26T11:10:09.637Z,29.80
2019-06-26T11:12:37.355Z,29.90
2019-06-26T11:15:08.615Z,29.90
2019-06-26T11:17:36.354Z,30.10
2019-06-26T11:20:06.231Z,30.10
2019-06-26T11:22:33.942Z,30.10
2019-06-26T11:25:01.603Z,29.90
2019-06-26T11:27:29.251Z,30.00
2019-06-26T11:29:56.955Z,30.10
2019-06-26T11:32:24.688Z,30.20
2019-06-26T11:34:52.333Z,30.30
2019-06-26T11:37:22.910Z,30.20
2019-06-26T11:39:49.535Z,30.00
2019-06-26T11:42:17.306Z,30.10
2019-06-26T11:44:44.946Z,30.10
2019-06-26T11:47:12.637Z,30.10
2019-06-26T11:49:40.586Z,30.10
2019-06-26T11:52:08.558Z,30.10
2019-06-26T11:54:36.214Z,30.10
2019-06-26T11:57:04.005Z,30.20
2019-06-26T11:59:31.648Z,30.20
2019-06-26T12:01:59.298Z,30.30
2019-06-26T12:04:26.932Z,30.60
2019-06-26T12:06:54.645Z,30.60
2019-06-26T12:09:22.382Z,30.70
2019-06-26T12:11:50.942Z,30.80
2019-06-26T12:14:18.633Z,30.70
2019-06-26T12:16:46.323Z,30.90
2019-06-26T12:19:13.976Z,31.20
2019-06-26T12:21:41.675Z,31.40
2019-06-26T12:24:09.328Z,31.60
2019-06-26T12:26:36.989Z,31.80
2019-06-26T12:29:05.023Z,32.00
2019-06-26T12:31:32.691Z,32.00
2019-06-26T12:34:00.323Z,32.00
2019-06-26T12:36:27.959Z,32.20
2019-06-26T12:38:55.639Z,32.10
2019-06-26T12:41:23.342Z,32.10
2019-06-26T12:43:50.982Z,32.00
2019-06-26T12:46:18.640Z,32.40
2019-06-26T12:48:46.283Z,32.40
2019-06-26T12:51:13.918Z,32.70
2019-06-26T12:53:41.625Z,32.90
2019-06-26T12:56:09.352Z,32.90
2019-06-26T12:58:36.982Z,33.00
2019-06-26T13:01:04.654Z,33.30
2019-06-26T13:03:32.291Z,33.50
2019-06-26T13:05:59.935Z,33.60
2019-06-26T13:08:27.661Z,33.90
2019-06-26T13:10:55.298Z,33.90
2019-06-26T13:13:23.277Z,33.70
2019-06-26T13:15:51.390Z,33.70
2019-06-26T13:18:19.158Z,34.10
2019-06-26T13:20:52.641Z,34.40
2019-06-26T13:23:16.200Z,34.60
2019-06-26T13:25:44.134Z,34.50
2019-06-26T13:28:11.775Z,34.60
2019-06-26T13:30:39.672Z,34.60
2019-06-26T13:33:07.306Z,35.00
2019-06-26T13:35:35.862Z,35.40
2019-06-26T13:38:03.602Z,35.80
2019-06-26T13:40:31.243Z,36.10
2019-06-26T13:42:58.882Z,37.40
2019-06-26T13:45:26.534Z,40.30
2019-06-26T13:47:54.175Z,42.30
2019-06-26T13:50:21.950Z,44.00
2019-06-26T13:52:49.608Z,44.80
2019-06-26T13:55:17.410Z,45.40
2019-06-26T13:57:45.082Z,46.40
2019-06-26T14:00:14.606Z,46.80
2019-06-26T14:02:42.238Z,47.20
2019-06-26T14:05:10.515Z,47.20
2019-06-26T14:07:38.234Z,47.10
2019-06-26T14:10:07.410Z,46.90
2019-06-26T14:12:35.128Z,46.40
2019-06-26T14:15:05.217Z,45.70
2019-06-26T14:17:32.857Z,45.80
2019-06-26T14:20:00.492Z,45.90
2019-06-26T14:22:28.193Z,46.50
2019-06-26T14:24:55.904Z,47.10
2019-06-26T14:27:23.606Z,47.80
2019-06-26T14:29:51.357Z,48.70
2019-06-26T14:32:18.990Z,49.20
2019-06-26T14:34:46.630Z,49.60
2019-06-26T14:37:14.361Z,50.30
2019-06-26T14:39:42.011Z,50.60
2019-06-26T14:42:09.646Z,51.30
2019-06-26T14:44:37.311Z,51.70
2019-06-26T14:47:04.951Z,51.50
2019-06-26T14:49:32.582Z,51.70
2019-06-26T14:52:00.234Z,52.20
2019-06-26T14:54:27.880Z,51.80
2019-06-26T14:56:55.586Z,47.50
2019-06-26T14:59:23.271Z,45.30
2019-06-26T15:01:50.906Z,43.50
2019-06-26T15:04:18.551Z,42.40
2019-06-26T15:06:46.209Z,41.20
2019-06-26T15:09:14.510Z,40.60
2019-06-26T15:11:42.216Z,39.90
2019-06-26T15:14:09.871Z,39.40
2019-06-26T15:16:37.507Z,39.10
2019-06-26T15:19:05.221Z,38.80
2019-06-26T15:21:32.930Z,38.20
2019-06-26T15:24:00.631Z,38.10
2019-06-26T15:26:28.265Z,37.90
2019-06-26T15:28:55.922Z,37.80
2019-06-26T15:31:23.639Z,37.80
2019-06-26T15:33:51.277Z,37.70
2019-06-26T15:36:18.930Z,37.60
2019-06-26T15:38:46.574Z,37.60
2019-06-26T15:41:14.211Z,37.50
2019-06-26T15:43:41.948Z,37.50
2019-06-26T15:46:09.596Z,37.40
2019-06-26T15:48:37.316Z,37.30
2019-06-26T15:51:05.035Z,37.20
2019-06-26T15:53:32.746Z,37.20
2019-06-26T15:56:00.383Z,37.20
2019-06-26T15:58:32.532Z,37.10
2019-06-26T16:00:57.409Z,37.20
2019-06-26T16:03:25.053Z,37.20
2019-06-26T16:05:52.798Z,37.20
2019-06-26T16:08:20.437Z,37.20
2019-06-26T16:10:48.089Z,37.00
2019-06-26T16:13:15.822Z,37.10
2019-06-26T16:15:43.534Z,36.90
2019-06-26T16:18:12.802Z,36.90
2019-06-26T16:20:40.625Z,37.00
2019-06-26T16:23:08.313Z,36.90
2019-06-26T16:25:36.030Z,36.90
2019-06-26T16:28:05.680Z,36.80
2019-06-26T16:30:33.217Z,36.70
2019-06-26T16:33:00.861Z,36.70
2019-06-26T16:35:28.675Z,36.80
2019-06-26T16:37:56.315Z,36.90
2019-06-26T16:40:24.029Z,36.80
2019-06-26T16:42:51.687Z,36.80
2019-06-26T16:45:19.590Z,36.90
2019-06-26T16:47:47.279Z,36.90
2019-06-26T16:50:15.088Z,36.90
2019-06-26T16:52:49.101Z,37.00
2019-06-26T16:55:13.690Z,36.80
2019-06-26T16:57:41.494Z,36.90
2019-06-26T17:00:10.373Z,36.60
2019-06-26T17:02:38.131Z,36.60
2019-06-26T17:05:07.700Z,36.50
2019-06-26T17:07:35.416Z,36.50
2019-06-26T17:10:05.890Z,36.50
2019-06-26T17:12:33.577Z,36.50
2019-06-26T17:15:04.149Z,36.50
2019-06-26T17:17:30.574Z,36.40
2019-06-26T17:19:58.279Z,36.40
2019-06-26T17:22:25.921Z,36.40
2019-06-26T17:24:53.616Z,36.30
2019-06-26T17:27:21.839Z,36.30
2019-06-26T17:29:49.474Z,36.30
2019-06-26T17:32:17.114Z,36.20
2019-06-26T17:34:45.003Z,36.10
2019-06-26T17:37:12.644Z,36.10
2019-06-26T17:39:40.278Z,36.10
2019-06-26T17:42:08.456Z,36.10
2019-06-26T17:44:36.135Z,36.00
2019-06-26T17:47:05.477Z,35.90
2019-06-26T17:49:33.339Z,35.90
2019-06-26T17:52:01.643Z,35.80
2019-06-26T17:54:29.339Z,35.50
2019-06-26T17:56:57.082Z,35.30
2019-06-26T17:59:24.723Z,35.00
2019-06-26T18:01:52.407Z,34.80
2019-06-26T18:04:20.165Z,34.60
2019-06-26T18:06:47.859Z,34.40
2019-06-26T18:09:15.495Z,34.00
2019-06-26T18:11:43.223Z,33.80
2019-06-26T18:14:10.860Z,33.50
2019-06-26T18:16:38.490Z,33.20
2019-06-26T18:19:06.275Z,33.00
2019-06-26T18:21:33.973Z,32.70
2019-06-26T18:24:01.613Z,32.70
2019-06-26T18:26:29.267Z,32.60
2019-06-26T18:28:56.904Z,32.50
2019-06-26T18:31:24.610Z,32.50
2019-06-26T18:33:52.468Z,32.40
2019-06-26T18:36:20.179Z,32.20
2019-06-26T18:38:47.818Z,32.20
2019-06-26T18:41:18.570Z,32.00
2019-06-26T18:43:44.947Z,32.00
2019-06-26T18:46:12.578Z,31.90
2019-06-26T18:48:40.251Z,31.60
2019-06-26T18:51:07.960Z,31.50
2019-06-26T18:53:35.958Z,31.40
2019-06-26T18:56:03.710Z,31.30
2019-06-26T18:58:31.351Z,31.10
2019-06-26T19:00:58.986Z,31.20
2019-06-26T19:03:26.928Z,31.10
2019-06-26T19:05:54.572Z,30.90
2019-06-26T19:08:22.224Z,30.70
2019-06-26T19:10:49.939Z,30.60
2019-06-26T19:13:20.256Z,30.60
2019-06-26T19:15:46.934Z,30.40
2019-06-26T19:18:14.595Z,30.30
2019-06-26T19:20:42.248Z,30.20
2019-06-26T19:23:09.892Z,30.10
2019-06-26T19:25:37.569Z,29.90
2019-06-26T19:28:05.301Z,29.70
2019-06-26T19:30:33.003Z,29.60
2019-06-26T19:33:00.676Z,29.50
2019-06-26T19:35:28.451Z,29.30
2019-06-26T19:37:56.094Z,29.30
2019-06-26T19:40:24.258Z,29.30
2019-06-26T19:42:52.177Z,29.30
2019-06-26T19:45:19.955Z,29.20
2019-06-26T19:47:47.822Z,29.10
2019-06-26T19:50:16.403Z,29.00
2019-06-26T19:52:44.220Z,29.00
2019-06-26T19:55:12.202Z,28.80
2019-06-26T19:57:40.035Z,28.60
2019-06-26T20:00:10.918Z,28.70
2019-06-26T20:02:38.682Z,28.60
2019-06-26T20:05:06.974Z,28.50
2019-06-26T20:07:34.937Z,28.40
2019-06-26T20:10:03.847Z,28.50
2019-06-26T20:12:31.489Z,28.50
2019-06-26T20:14:59.151Z,28.50
2019-06-26T20:17:26.944Z,28.50
2019-06-26T20:19:54.669Z,28.30
2019-06-26T20:22:23.158Z,28.10
2019-06-26T20:24:50.826Z,28.10
2019-06-26T20:27:18.512Z,28.10
2019-06-26T20:29:46.230Z,28.10
2019-06-26T20:32:14.069Z,28.00
2019-06-26T20:34:41.809Z,28.00
2019-06-26T20:37:09.558Z,27.80
2019-06-26T20:39:37.292Z,27.70
2019-06-26T20:42:05.029Z,27.80
2019-06-26T20:44:32.727Z,27.80
2019-06-26T20:47:00.399Z,27.70
2019-06-26T20:49:28.198Z,27.70
2019-06-26T20:51:56.054Z,27.70
2019-06-26T20:54:23.730Z,27.70
2019-06-26T20:56:52.231Z,27.60
2019-06-26T20:59:19.879Z,27.60
2019-06-26T21:01:47.543Z,27.60
2019-06-26T21:04:15.359Z,27.50
2019-06-26T21:06:43.112Z,27.40
2019-06-26T21:09:10.788Z,27.30
2019-06-26T21:11:38.465Z,27.20
2019-06-26T21:14:06.195Z,27.10
2019-06-26T21:16:33.986Z,27.00
2019-06-26T21:19:02.370Z,27.10
2019-06-26T21:21:30.091Z,27.10
2019-06-26T21:23:57.768Z,27.10
2019-06-26T21:26:25.491Z,27.10
2019-06-26T21:28:53.147Z,27.00
2019-06-26T21:31:20.810Z,26.90
2019-06-26T21:33:48.559Z,26.80
2019-06-26T21:36:16.276Z,26.80
2019-06-26T21:38:43.969Z,26.70
2019-06-26T21:41:11.668Z,26.70
2019-06-26T21:43:39.319Z,26.60
2019-06-26T21:46:07.068Z,26.60
2019-06-26T21:48:34.729Z,26.40
2019-06-26T21:51:02.533Z,26.30
2019-06-26T21:53:30.182Z,26.40
2019-06-26T21:55:57.840Z,26.30
2019-06-26T21:58:25.571Z,26.20
2019-06-26T22:00:53.322Z,26.30
2019-06-26T22:03:21.103Z,26.30
2019-06-26T22:05:48.818Z,26.30
2019-06-26T22:08:16.525Z,26.10
2019-06-26T22:10:44.234Z,26.10
2019-06-26T22:13:11.950Z,26.10
2019-06-26T22:15:39.699Z,26.10
2019-06-26T22:18:07.481Z,25.90
2019-06-26T22:20:35.123Z,25.90
2019-06-26T22:23:02.867Z,25.80
2019-06-26T22:25:30.511Z,25.80
2019-06-26T22:27:58.298Z,25.80
2019-06-26T22:30:26.259Z,25.80
2019-06-26T22:32:53.898Z,25.60
2019-06-26T22:35:21.540Z,25.50
2019-06-26T22:37:49.264Z,25.50
2019-06-26T22:40:17.054Z,25.40
2019-06-26T22:42:44.846Z,25.20
2019-06-26T22:45:14.127Z,25.10
2019-06-26T22:47:41.770Z,25.00
2019-06-26T22:50:09.760Z,24.90
2019-06-26T22:52:37.644Z,24.80
2019-06-26T22:55:06.324Z,24.60
2019-06-26T22:57:34.108Z,24.60
2019-06-26T23:00:02.036Z,24.60
2019-06-26T23:02:29.743Z,24.50
2019-06-26T23:04:57.396Z,24.50
2019-06-26T23:07:25.061Z,24.50
2019-06-26T23:09:52.776Z,24.50
2019-06-26T23:12:20.419Z,24.50
2019-06-26T23:14:48.113Z,24.50
2019-06-26T23:17:15.755Z,24.50
2019-06-26T23:19:43.399Z,24.40
2019-06-26T23:22:11.063Z,24.40
2019-06-26T23:24:38.705Z,24.40
2019-06-26T23:27:06.440Z,24.40
2019-06-26T23:29:34.101Z,24.50
2019-06-26T23:32:03.369Z,24.50
2019-06-26T23:34:31.247Z,24.30
2019-06-26T23:36:58.919Z,24.30
2019-06-26T23:39:26.567Z,24.30
2019-06-26T23:41:54.212Z,24.20
2019-06-26T23:44:21.871Z,24.20
2019-06-26T23:46:49.583Z,24.10
2019-06-26T23:49:17.232Z,24.10
2019-06-26T23:51:44.968Z,24.10
2019-06-26T23:54:12.612Z,24.10
2019-06-26T23:56:41.029Z,24.20
2019-06-26T23:59:08.814Z,24.20
